Time;durP1;ratioP1;P1;durP2;ratioP2;P2;SDS_P1;SDS_P2;PMS_P1;PMS_P2;Temp;Humidity;BMP_temperature;BMP_pressure;BME280_temperature;BME280_humidity;BME280_pressure;Samples;Min_cycle;Max_cycle;Signal;HPM_P1;HPM_P2
2023/02/12 00:00:39;;;;;;;;;;;;;;;21.08;28.89;99306.28;5090929;28;19949;-82
2023/02/12 00:03:05;;;;;;;;;;;;;;;21.26;28.88;99312.06;5109967;27;19919;-82
2023/02/12 00:05:31;;;;;;;;;;;;;;;21.31;28.77;99312.47;5107253;27;20026;-82
2023/02/12 00:07:57;;;;;;;;;;;;;;;20.51;30.08;99323.56;5111422;27;19975;-82
2023/02/12 00:10:23;;;;;;;;;;;;;;;21.59;28.10;99314.72;5107121;28;19959;-82
2023/02/12 00:12:52;;;;;;;;;;;;;;;22.09;27.39;99313.09;5113337;28;19919;-82
2023/02/12 00:15:18;;;;;;;;;;;;;;;22.28;27.51;99318.38;5113879;27;19919;-82
2023/02/12 00:17:44;;;;;;;;;;;;;;;22.17;27.21;99314.72;5111157;28;19935;-82
2023/02/12 00:20:10;;;;;;;;;;;;;;;22.45;27.02;99306.47;5105763;28;19920;-82
2023/02/12 00:22:36;;;;;;;;;;;;;;;20.75;29.39;99328.63;5113937;28;20321;-82
2023/02/12 00:25:02;;;;;;;;;;;;;;;20.33;30.42;99317.75;5106477;28;20331;-82
2023/02/12 00:27:31;;;;;;;;;;;;;;;20.12;30.48;99333.38;5090539;28;19920;-82
2023/02/12 00:29:57;;;;;;;;;;;;;;;21.13;28.66;99319.91;5113371;27;19927;-82
2023/02/12 00:32:23;;;;;;;;;;;;;;;20.34;30.00;99324.16;5122231;27;20006;-82
2023/02/12 00:34:49;;;;;;;;;;;;;;;20.95;29.41;99324.47;5096364;28;20372;-82
2023/02/12 00:37:15;;;;;;;;;;;;;;;21.79;27.68;99318.88;5107079;28;19964;-82
2023/02/12 00:39:41;;;;;;;;;;;;;;;20.67;29.51;99322.19;5107904;28;20010;-82
2023/02/12 00:42:08;;;;;;;;;;;;;;;21.67;27.89;99324.75;5106299;28;19916;-82
2023/02/12 00:44:34;;;;;;;;;;;;;;;21.30;28.45;99322.06;5092318;28;19916;-82
2023/02/12 00:47:03;;;;;;;;;;;;;;;21.52;28.16;99325.03;5112246;28;19954;-82
2023/02/12 00:49:33;;;;;;;;;;;;;;;20.14;30.35;99333.81;5111909;28;19923;-82
2023/02/12 00:51:59;;;;;;;;;;;;;;;20.93;29.01;99321.28;5106869;28;19919;-82
2023/02/12 00:54:26;;;;;;;;;;;;;;;21.56;28.42;99325.88;5110118;28;19923;-82
2023/02/12 00:56:52;;;;;;;;;;;;;;;20.89;29.21;99326.00;5105413;27;20018;-82
2023/02/12 00:59:18;;;;;;;;;;;;;;;21.59;28.11;99327.88;5105911;28;19927;-82
2023/02/12 01:01:44;;;;;;;;;;;;;;;21.96;27.35;99323.78;5110947;28;20438;-82
2023/02/12 01:04:10;;;;;;;;;;;;;;;21.39;28.48;99332.91;5110799;28;19926;-82
2023/02/12 01:06:36;;;;;;;;;;;;;;;21.11;29.07;99341.03;5112207;28;19932;-82
2023/02/12 01:09:02;;;;;;;;;;;;;;;20.86;29.27;99348.31;5112870;28;19973;-82
2023/02/12 01:11:28;;;;;;;;;;;;;;;19.44;32.00;99353.03;5106514;28;19926;-82
2023/02/12 01:13:55;;;;;;;;;;;;;;;20.91;29.24;99353.56;5113565;28;19920;-82
2023/02/12 01:16:22;;;;;;;;;;;;;;;21.99;27.57;99347.38;5097255;28;19924;-82
2023/02/12 01:18:49;;;;;;;;;;;;;;;21.47;28.70;99351.31;5103207;28;19920;-82
2023/02/12 01:21:19;;;;;;;;;;;;;;;21.53;28.42;99351.78;5110659;28;19981;-82
2023/02/12 01:23:46;;;;;;;;;;;;;;;22.05;27.59;99350.63;5109327;28;20019;-82
2023/02/12 01:26:12;;;;;;;;;;;;;;;21.78;27.78;99350.00;5102520;28;19997;-83
2023/02/12 01:28:39;;;;;;;;;;;;;;;21.76;28.20;99352.38;5104157;28;19924;-82
2023/02/12 01:31:12;;;;;;;;;;;;;;;21.46;28.53;99360.91;5113486;28;19920;-83
2023/02/12 01:33:38;;;;;;;;;;;;;;;21.28;28.75;99351.56;5109554;28;19972;-83
2023/02/12 01:36:05;;;;;;;;;;;;;;;21.51;28.20;99354.16;5108223;28;20328;-83
2023/02/12 01:38:31;;;;;;;;;;;;;;;20.65;29.66;99351.66;5108723;28;19928;-82
2023/02/12 01:41:10;;;;;;;;;;;;;;;21.39;28.59;99369.22;5115913;28;19972;-82
2023/02/12 01:43:36;;;;;;;;;;;;;;;21.43;28.47;99349.69;5113892;28;19926;-82
2023/02/12 01:46:03;;;;;;;;;;;;;;;21.34;29.13;99364.00;5114182;28;19920;-82
2023/02/12 01:48:31;;;;;;;;;;;;;;;21.04;29.25;99364.09;5110016;28;20425;-82
2023/02/12 01:50:58;;;;;;;;;;;;;;;20.71;29.43;99366.06;5112982;28;20085;-83
2023/02/12 01:53:28;;;;;;;;;;;;;;;20.73;29.29;99367.28;5108973;28;19920;-83
2023/02/12 01:55:56;;;;;;;;;;;;;;;21.53;28.43;99372.16;5116104;27;20369;-83
2023/02/12 01:58:24;;;;;;;;;;;;;;;21.82;27.93;99373.97;5108874;27;19965;-83
2023/02/12 02:00:50;;;;;;;;;;;;;;;21.16;29.20;99366.63;5110301;28;19920;-83
2023/02/12 02:03:16;;;;;;;;;;;;;;;20.81;29.23;99373.75;5112822;28;19920;-83
2023/02/12 02:05:48;;;;;;;;;;;;;;;21.27;29.04;99372.31;5115379;27;19993;-83
2023/02/12 02:08:14;;;;;;;;;;;;;;;21.95;27.80;99375.31;5105389;27;20383;-82
2023/02/12 02:10:40;;;;;;;;;;;;;;;22.01;27.31;99384.13;5115003;28;19920;-82
2023/02/12 02:15:55;;;;;;;;;;;;;;;20.96;29.02;99390.28;5108054;27;19930;-82
2023/02/12 02:18:40;;;;;;;;;;;;;;;20.91;29.41;99395.44;5101060;28;19951;-83
2023/02/12 02:21:18;;;;;;;;;;;;;;;21.07;28.99;99387.66;5099173;28;19915;-83
2023/02/12 02:24:03;;;;;;;;;;;;;;;21.45;28.80;99403.22;5097684;28;19938;-82
2023/02/12 02:26:47;;;;;;;;;;;;;;;20.55;30.29;99419.28;5096122;28;20264;-82
2023/02/12 02:29:13;;;;;;;;;;;;;;;20.99;29.28;99414.66;5106220;28;19931;-82
2023/02/12 02:31:48;;;;;;;;;;;;;;;20.51;30.18;99424.78;5114697;28;19919;-82
2023/02/12 02:34:28;;;;;;;;;;;;;;;20.04;30.88;99432.03;5111345;28;19920;-82
2023/02/12 02:36:57;;;;;;;;;;;;;;;21.37;28.58;99432.25;5106410;28;19924;-82
2023/02/12 02:39:32;;;;;;;;;;;;;;;22.59;26.86;99434.50;5095392;28;19920;-82
2023/02/12 02:42:12;;;;;;;;;;;;;;;22.55;26.95;99442.06;5099954;27;19920;-82
2023/02/12 02:44:41;;;;;;;;;;;;;;;22.24;27.62;99443.44;5112857;28;19928;-83
2023/02/12 02:47:09;;;;;;;;;;;;;;;21.55;28.60;99450.00;5109352;28;20268;-83
2023/02/12 02:49:43;;;;;;;;;;;;;;;21.14;28.89;99449.19;5095507;28;19927;-83
2023/02/12 02:52:13;;;;;;;;;;;;;;;21.96;27.80;99446.06;5107590;28;20379;-83
2023/02/12 02:54:42;;;;;;;;;;;;;;;21.26;28.76;99441.31;5114405;27;20383;-83
2023/02/12 02:57:13;;;;;;;;;;;;;;;22.24;27.67;99443.44;5113434;28;19963;-83
2023/02/12 02:59:41;;;;;;;;;;;;;;;22.34;27.33;99447.50;5111164;27;19928;-83
2023/02/12 03:02:13;;;;;;;;;;;;;;;21.61;28.17;99438.09;5108666;28;19919;-83
2023/02/12 03:04:45;;;;;;;;;;;;;;;20.74;29.48;99449.84;5105569;28;20009;-83
2023/02/12 03:07:28;;;;;;;;;;;;;;;20.19;30.48;99470.09;5108946;28;20348;-83
2023/02/12 03:10:00;;;;;;;;;;;;;;;20.77;29.50;99474.19;5105077;27;20410;-82
2023/02/12 03:12:52;;;;;;;;;;;;;;;21.52;28.52;99470.34;5109802;28;19921;-82
2023/02/12 03:15:23;;;;;;;;;;;;;;;21.06;29.38;99481.78;5072034;28;19920;-82
2023/02/12 03:17:49;;;;;;;;;;;;;;;20.74;29.52;99482.53;5111242;28;19919;-82
2023/02/12 03:20:21;;;;;;;;;;;;;;;21.71;28.37;99473.75;5113360;28;19927;-83
2023/02/12 03:22:52;;;;;;;;;;;;;;;20.95;29.42;99493.97;5115288;28;19926;-82
2023/02/12 03:25:21;;;;;;;;;;;;;;;20.61;29.93;99487.50;5113338;28;19961;-82
2023/02/12 03:27:58;;;;;;;;;;;;;;;17.82;34.93;99506.84;5111826;28;20356;-83
2023/02/12 03:30:29;;;;;;;;;;;;;;;19.78;31.62;99514.44;5113200;28;19919;-83
2023/02/12 03:33:08;;;;;;;;;;;;;;;18.65;33.71;99521.59;5105372;28;20387;-83
2023/02/12 03:35:39;;;;;;;;;;;;;;;20.96;29.68;99504.75;5108834;28;20399;-83
2023/02/12 03:38:20;;;;;;;;;;;;;;;21.42;28.83;99508.19;5114410;27;19920;-83
2023/02/12 03:40:55;;;;;;;;;;;;;;;21.42;28.32;99522.16;5105195;28;19926;-83
2023/02/12 03:43:27;;;;;;;;;;;;;;;19.95;30.82;99527.09;5112866;28;19923;-83
2023/02/12 03:46:03;;;;;;;;;;;;;;;19.97;30.81;99530.28;5096569;28;19971;-83
2023/02/12 03:48:43;;;;;;;;;;;;;;;20.66;29.36;99532.66;5103681;28;19926;-83
2023/02/12 03:51:22;;;;;;;;;;;;;;;22.18;27.50;99526.13;5114531;28;20371;-83
2023/02/12 03:53:48;;;;;;;;;;;;;;;22.80;26.57;99531.84;5115726;28;19924;-83
2023/02/12 03:56:18;;;;;;;;;;;;;;;23.40;25.79;99543.38;5111452;28;19920;-83
2023/02/12 03:58:44;;;;;;;;;;;;;;;23.40;25.55;99549.81;5109895;28;20006;-83
2023/02/12 04:01:12;;;;;;;;;;;;;;;23.44;25.55;99555.41;5112655;28;20494;-84
2023/02/12 04:03:38;;;;;;;;;;;;;;;23.52;25.26;99557.88;5108620;27;19982;-84
2023/02/12 04:06:04;;;;;;;;;;;;;;;23.03;26.09;99563.19;5109149;27;19962;-83
2023/02/12 04:08:31;;;;;;;;;;;;;;;23.04;25.96;99570.38;5107965;28;19962;-83
2023/02/12 04:11:12;;;;;;;;;;;;;;;22.73;26.46;99569.00;5114050;27;19926;-83
2023/02/12 04:13:49;;;;;;;;;;;;;;;23.04;26.18;99574.00;5112807;27;19920;-83
2023/02/12 04:16:28;;;;;;;;;;;;;;;23.64;25.42;99577.09;5114973;28;19943;-83
2023/02/12 04:18:54;;;;;;;;;;;;;;;24.25;24.76;99572.50;5111945;28;19927;-83
2023/02/12 04:21:24;;;;;;;;;;;;;;;24.08;24.54;99578.88;5114828;28;19920;-82
2023/02/12 04:24:08;;;;;;;;;;;;;;;24.07;24.43;99589.28;5110771;28;19926;-82
2023/02/12 04:26:53;;;;;;;;;;;;;;;23.80;24.55;99591.63;5114876;28;19923;-82
2023/02/12 04:29:19;;;;;;;;;;;;;;;23.73;25.00;99593.59;5106388;28;20056;-82
2023/02/12 04:31:56;;;;;;;;;;;;;;;23.47;25.24;99594.69;5114950;28;19956;-82
2023/02/12 04:34:32;;;;;;;;;;;;;;;23.56;25.13;99597.13;5109739;28;20280;-82
2023/02/12 04:37:01;;;;;;;;;;;;;;;23.38;25.72;99603.44;5114104;28;20018;-83
2023/02/12 04:39:29;;;;;;;;;;;;;;;23.94;25.33;99596.47;5100208;27;19920;-83
2023/02/12 04:41:59;;;;;;;;;;;;;;;24.45;24.46;99605.41;5103893;28;19920;-83
2023/02/12 04:44:30;;;;;;;;;;;;;;;24.82;24.07;99605.03;5112274;28;19924;-83
2023/02/12 04:46:56;;;;;;;;;;;;;;;25.17;23.52;99615.41;5109907;27;20007;-83
2023/02/12 04:49:22;;;;;;;;;;;;;;;24.85;23.65;99618.28;5096358;28;19985;-83
2023/02/12 04:51:49;;;;;;;;;;;;;;;25.03;23.43;99630.28;5106547;28;19920;-82
2023/02/12 04:54:16;;;;;;;;;;;;;;;25.09;23.71;99634.28;5110705;28;19927;-82
2023/02/12 04:56:42;;;;;;;;;;;;;;;24.31;23.98;99641.88;5102735;28;19920;-82
2023/02/12 04:59:08;;;;;;;;;;;;;;;23.86;24.72;99636.91;5100009;28;19927;-83
2023/02/12 05:01:35;;;;;;;;;;;;;;;24.34;24.59;99645.88;5111592;28;20002;-83
2023/02/12 05:04:02;;;;;;;;;;;;;;;23.07;25.57;99653.66;5109352;28;19976;-82
2023/02/12 05:06:29;;;;;;;;;;;;;;;18.26;32.69;99668.78;5108815;28;19923;-83
2023/02/12 05:08:55;;;;;;;;;;;;;;;18.71;31.88;99675.94;5108475;28;20014;-82
2023/02/12 05:11:21;;;;;;;;;;;;;;;21.22;28.61;99677.09;5103153;28;19924;-83
2023/02/12 05:13:48;;;;;;;;;;;;;;;20.01;29.76;99687.28;5096481;28;20421;-83
2023/02/12 05:16:15;;;;;;;;;;;;;;;21.00;28.15;99681.56;5113995;28;20278;-82
2023/02/12 05:18:42;;;;;;;;;;;;;;;20.41;28.63;99698.84;5105220;28;20026;-82
2023/02/12 05:21:08;;;;;;;;;;;;;;;15.72;36.57;99704.94;5095115;28;19920;-83
2023/02/12 05:23:36;;;;;;;;;;;;;;;15.45;37.56;99708.22;5112816;28;19972;-82
2023/02/12 05:26:03;;;;;;;;;;;;;;;17.95;33.62;99705.66;5112049;28;20337;-82
2023/02/12 05:28:30;;;;;;;;;;;;;;;18.58;31.80;99703.03;5103656;28;20359;-82
2023/02/12 05:31:00;;;;;;;;;;;;;;;18.46;32.09;99705.91;5105263;28;19920;-82
2023/02/12 05:33:26;;;;;;;;;;;;;;;16.32;35.55;99711.84;5109603;28;19951;-83
2023/02/12 05:35:52;;;;;;;;;;;;;;;17.97;32.97;99724.75;5110966;28;20016;-83
2023/02/12 05:38:18;;;;;;;;;;;;;;;16.65;34.90;99723.72;5111222;28;20038;-83
2023/02/12 05:40:44;;;;;;;;;;;;;;;18.28;32.40;99719.28;5111702;28;20427;-83
2023/02/12 05:43:10;;;;;;;;;;;;;;;19.55;30.52;99721.72;5110994;28;20018;-83
2023/02/12 05:45:36;;;;;;;;;;;;;;;17.79;32.89;99729.78;5104403;28;19973;-83
2023/02/12 05:48:03;;;;;;;;;;;;;;;21.10;28.45;99719.22;5077354;28;19965;-83
2023/02/12 05:50:29;;;;;;;;;;;;;;;20.76;28.04;99729.38;5110508;28;20336;-83
2023/02/12 05:52:55;;;;;;;;;;;;;;;20.92;27.59;99732.03;5111638;28;19923;-82
2023/02/12 05:55:21;;;;;;;;;;;;;;;19.41;29.74;99732.53;5112137;28;19934;-83
2023/02/12 05:57:47;;;;;;;;;;;;;;;19.99;29.02;99737.84;5106345;28;19927;-83
2023/02/12 06:00:13;;;;;;;;;;;;;;;20.70;27.77;99736.44;5108416;28;19919;-82
2023/02/12 06:02:39;;;;;;;;;;;;;;;20.42;27.63;99752.69;5086171;28;19969;-82
2023/02/12 06:05:05;;;;;;;;;;;;;;;20.82;27.48;99750.22;5109991;28;19949;-82
2023/02/12 06:07:31;;;;;;;;;;;;;;;21.04;27.38;99754.19;5110555;28;19924;-82
2023/02/12 06:09:58;;;;;;;;;;;;;;;21.71;26.93;99756.09;5104752;28;19927;-82
2023/02/12 06:12:24;;;;;;;;;;;;;;;22.43;25.27;99756.63;5110748;28;20340;-82
2023/02/12 06:14:50;;;;;;;;;;;;;;;22.72;24.79;99770.97;5112082;28;20283;-82
2023/02/12 06:17:16;;;;;;;;;;;;;;;23.05;24.37;99762.50;5103886;28;20404;-83
2023/02/12 06:19:42;;;;;;;;;;;;;;;22.83;24.49;99775.50;5108077;28;19924;-82
2023/02/12 06:22:08;;;;;;;;;;;;;;;22.69;24.82;99784.56;5110766;28;20052;-83
2023/02/12 06:24:35;;;;;;;;;;;;;;;22.85;24.50;99787.13;5112554;28;19977;-82
2023/02/12 06:27:02;;;;;;;;;;;;;;;22.78;24.65;99778.66;5113357;28;20447;-83
2023/02/12 06:29:28;;;;;;;;;;;;;;;23.39;23.98;99786.44;5116550;28;19973;-83
2023/02/12 06:31:54;;;;;;;;;;;;;;;22.86;24.36;99793.53;5114945;28;20364;-82
2023/02/12 06:34:20;;;;;;;;;;;;;;;21.81;26.11;99796.56;5111032;28;20011;-82
2023/02/12 06:36:46;;;;;;;;;;;;;;;21.70;26.69;99795.63;5114995;27;19956;-83
2023/02/12 06:39:14;;;;;;;;;;;;;;;19.65;28.80;99802.75;5088973;28;19920;-82
2023/02/12 06:41:40;;;;;;;;;;;;;;;17.02;33.08;99813.34;5106476;28;20006;-83
2023/02/12 06:44:06;;;;;;;;;;;;;;;16.89;33.30;99822.81;5110283;28;20405;-84
2023/02/12 06:46:33;;;;;;;;;;;;;;;15.08;36.60;99822.50;5114925;28;19955;-84
2023/02/12 06:48:59;;;;;;;;;;;;;;;16.11;35.00;99827.44;5106841;28;19920;-84
2023/02/12 06:51:26;;;;;;;;;;;;;;;16.43;34.56;99833.03;5107785;27;19920;-84
2023/02/12 06:53:53;;;;;;;;;;;;;;;16.52;33.65;99824.69;5110574;27;19920;-84
2023/02/12 06:56:20;;;;;;;;;;;;;;;16.32;34.68;99823.50;5105669;28;19920;-84
2023/02/12 06:58:47;;;;;;;;;;;;;;;16.29;34.61;99826.16;5112875;28;19927;-85
2023/02/12 07:01:16;;;;;;;;;;;;;;;16.04;34.71;99829.94;5113128;28;19923;-84
2023/02/12 07:03:43;;;;;;;;;;;;;;;15.64;35.31;99832.34;5115348;27;19920;-84
2023/02/12 07:06:09;;;;;;;;;;;;;;;14.73;37.37;99834.81;5106611;28;20017;-84
2023/02/12 07:08:35;;;;;;;;;;;;;;;15.41;35.68;99836.50;5115182;28;19926;-84
2023/02/12 07:11:02;;;;;;;;;;;;;;;16.25;34.46;99847.38;5105986;28;19926;-84
2023/02/12 07:13:28;;;;;;;;;;;;;;;16.15;34.74;99851.34;5105087;27;20404;-84
2023/02/12 07:15:54;;;;;;;;;;;;;;;15.07;36.58;99854.91;5112343;28;19920;-85
2023/02/12 07:18:20;;;;;;;;;;;;;;;15.69;35.40;99862.59;5110508;27;20418;-85
2023/02/12 07:20:46;;;;;;;;;;;;;;;16.30;34.20;99861.84;5112877;28;20337;-85
2023/02/12 07:23:12;;;;;;;;;;;;;;;17.33;32.43;99859.97;5099556;28;19995;-84
2023/02/12 07:25:38;;;;;;;;;;;;;;;17.50;32.32;99865.31;5115516;27;19927;-84
2023/02/12 07:28:04;;;;;;;;;;;;;;;17.08;32.47;99873.03;5108846;28;20272;-85
2023/02/12 07:30:30;;;;;;;;;;;;;;;16.06;34.28;99874.72;5107968;28;19919;-84
2023/02/12 07:32:56;;;;;;;;;;;;;;;16.54;33.20;99872.28;5111488;28;20286;-84
2023/02/12 07:35:22;;;;;;;;;;;;;;;17.62;31.48;99868.16;5095845;28;19928;-84
2023/02/12 07:37:48;;;;;;;;;;;;;;;17.74;31.33;99873.66;5115007;27;20014;-84
2023/02/12 07:40:14;;;;;;;;;;;;;;;16.77;32.46;99878.25;5109306;28;20018;-85
2023/02/12 07:42:40;;;;;;;;;;;;;;;14.19;36.63;99889.59;5112041;28;19925;-85
2023/02/12 07:45:06;;;;;;;;;;;;;;;13.76;38.37;99891.50;5112711;28;20393;-86
2023/02/12 07:47:34;;;;;;;;;;;;;;;12.73;40.92;99893.75;5103184;28;19959;-85
2023/02/12 07:50:00;;;;;;;;;;;;;;;15.25;36.52;99880.53;5113921;28;20009;-86
2023/02/12 07:52:26;;;;;;;;;;;;;;;16.05;34.62;99884.22;5115417;28;20008;-86
2023/02/12 07:54:52;;;;;;;;;;;;;;;14.59;37.26;99892.22;5113501;27;19927;-86
2023/02/12 07:57:18;;;;;;;;;;;;;;;15.39;35.44;99892.19;5104288;28;20034;-87
2023/02/12 07:59:44;;;;;;;;;;;;;;;16.51;33.18;99889.56;5105089;27;19916;-86
2023/02/12 08:02:11;;;;;;;;;;;;;;;15.06;35.28;99902.22;5112806;28;19927;-87
2023/02/12 08:04:37;;;;;;;;;;;;;;;14.15;37.67;99912.66;5102337;28;19920;-86
2023/02/12 08:07:03;;;;;;;;;;;;;;;13.88;38.15;99919.28;5102116;28;19924;-87
2023/02/12 08:09:31;;;;;;;;;;;;;;;13.69;39.09;99911.28;5111031;27;20405;-86
2023/02/12 08:11:58;;;;;;;;;;;;;;;13.95;38.46;99922.41;5105001;27;19961;-86
2023/02/12 08:14:25;;;;;;;;;;;;;;;14.24;38.52;99925.34;5102444;28;20014;-86
2023/02/12 08:16:51;;;;;;;;;;;;;;;15.86;35.37;99912.34;5101931;28;19924;-87
2023/02/12 08:19:17;;;;;;;;;;;;;;;14.34;37.60;99921.50;5111260;28;20414;-86
2023/02/12 08:21:43;;;;;;;;;;;;;;;13.81;37.45;99921.72;5112199;28;19974;-86
2023/02/12 08:24:10;;;;;;;;;;;;;;;13.45;38.81;99926.59;5108851;28;19976;-86
2023/02/12 08:26:37;;;;;;;;;;;;;;;14.27;37.84;99927.47;5100833;27;19982;-87
2023/02/12 08:29:06;;;;;;;;;;;;;;;14.35;37.05;99923.94;5104819;28;19923;-93
2023/02/12 08:31:34;;;;;;;;;;;;;;;15.23;35.86;99924.31;5104582;28;19919;-88
2023/02/12 08:34:01;;;;;;;;;;;;;;;15.59;35.89;99930.22;5111967;28;19927;-87
2023/02/12 08:36:38;;;;;;;;;;;;;;;15.80;34.15;99928.34;5112357;28;19927;-85
2023/02/12 08:39:05;;;;;;;;;;;;;;;15.71;34.75;99927.56;5101480;28;19924;-86
2023/02/12 08:41:31;;;;;;;;;;;;;;;15.43;35.28;99933.84;5094984;28;20026;-87
2023/02/12 08:43:59;;;;;;;;;;;;;;;13.69;38.19;99943.59;5098943;27;19946;-85
2023/02/12 08:46:26;;;;;;;;;;;;;;;14.71;35.90;99944.91;5100871;27;20429;-86
2023/02/12 08:49:00;;;;;;;;;;;;;;;14.61;36.56;99950.78;5113265;28;20414;-85
2023/02/12 08:51:29;;;;;;;;;;;;;;;14.48;37.13;99949.78;5108416;28;19993;-85
2023/02/12 08:53:56;;;;;;;;;;;;;;;15.20;34.30;99942.41;5111109;28;19924;-86
2023/02/12 08:56:22;;;;;;;;;;;;;;;15.58;34.53;99952.72;5102346;28;19931;-85
2023/02/12 08:58:49;;;;;;;;;;;;;;;14.83;35.23;99956.94;5107271;28;19920;-86
2023/02/12 09:01:19;;;;;;;;;;;;;;;16.49;33.26;99963.94;5118123;27;19927;-85
2023/02/12 09:03:46;;;;;;;;;;;;;;;14.28;36.68;99976.06;5097633;28;19928;-84
2023/02/12 09:06:13;;;;;;;;;;;;;;;13.64;36.91;99977.66;5106190;28;19926;-85
2023/02/12 09:08:39;;;;;;;;;;;;;;;13.33;37.98;99978.78;5099837;28;19931;-85
2023/02/12 09:11:07;;;;;;;;;;;;;;;13.41;38.22;99986.31;5111076;28;19922;-85
2023/02/12 09:13:34;;;;;;;;;;;;;;;15.37;34.02;99980.28;5112956;28;19920;-85
2023/02/12 09:16:01;;;;;;;;;;;;;;;14.66;34.54;99998.41;5104271;28;20261;-87
2023/02/12 09:18:27;;;;;;;;;;;;;;;13.77;35.92;100001.56;5117189;27;20291;-84
2023/02/12 09:20:54;;;;;;;;;;;;;;;14.04;35.75;100002.50;5106831;28;19924;-85
2023/02/12 09:23:20;;;;;;;;;;;;;;;14.83;34.51;100003.13;5107599;28;19916;-84
2023/02/12 09:25:46;;;;;;;;;;;;;;;15.24;33.73;100009.75;5111014;28;19931;-85
2023/02/12 09:28:13;;;;;;;;;;;;;;;13.98;34.49;100012.06;5110083;28;19931;-87
2023/02/12 09:30:39;;;;;;;;;;;;;;;15.34;34.26;100010.53;5108612;28;19916;-86
2023/02/12 09:33:06;;;;;;;;;;;;;;;15.32;34.02;100010.88;5102963;28;19920;-86
2023/02/12 09:35:36;;;;;;;;;;;;;;;14.54;35.31;100017.56;5083613;28;20037;-90
2023/02/12 09:38:03;;;;;;;;;;;;;;;14.84;35.11;100015.81;5111839;28;19970;-90
2023/02/12 09:40:38;;;;;;;;;;;;;;;16.02;32.51;100004.81;5108103;28;19920;-89
2023/02/12 09:43:07;;;;;;;;;;;;;;;15.80;32.38;100008.66;5107256;28;20006;-91
2023/02/12 09:45:42;;;;;;;;;;;;;;;15.07;34.24;100012.56;5100060;28;19939;-88
2023/02/12 09:48:11;;;;;;;;;;;;;;;14.11;36.43;100005.59;5110967;28;19919;-92
2023/02/12 09:50:56;;;;;;;;;;;;;;;13.55;36.60;100012.69;5109673;28;19916;-92
2023/02/12 09:53:24;;;;;;;;;;;;;;;14.09;36.53;100016.16;5111680;28;19923;-90
2023/02/12 09:55:50;;;;;;;;;;;;;;;14.36;35.53;100013.16;5107674;28;19916;-90
2023/02/12 09:58:31;;;;;;;;;;;;;;;14.59;36.02;100022.13;5087212;28;19924;-90
2023/02/12 10:00:57;;;;;;;;;;;;;;;13.89;35.56;100014.78;5110908;28;19920;-89
2023/02/12 10:03:24;;;;;;;;;;;;;;;13.56;36.17;100021.78;5115711;28;20438;-88
2023/02/12 10:05:57;;;;;;;;;;;;;;;13.15;37.58;100027.53;5096386;28;19928;-90
2023/02/12 10:08:41;;;;;;;;;;;;;;;15.14;33.80;100021.19;5108598;27;20012;-93
2023/02/12 10:11:26;;;;;;;;;;;;;;;15.71;33.48;100018.94;5117348;28;20383;-92
2023/02/12 10:13:58;;;;;;;;;;;;;;;15.37;32.78;100030.09;5116268;28;19973;-92
2023/02/12 10:16:33;;;;;;;;;;;;;;;17.19;30.64;100029.63;5113240;28;19966;-94
2023/02/12 10:18:59;;;;;;;;;;;;;;;20.51;25.91;100023.91;5107092;28;20350;-92
2023/02/12 10:21:48;;;;;;;;;;;;;;;18.58;28.54;100026.50;5112529;28;19931;-88
2023/02/12 10:24:35;;;;;;;;;;;;;;;17.87;29.66;100022.56;5076932;28;19920;-88
2023/02/12 10:27:07;;;;;;;;;;;;;;;19.31;27.49;100026.28;5100821;27;19958;-87
2023/02/12 10:29:37;;;;;;;;;;;;;;;17.06;30.72;100028.75;5114872;28;19982;-88
2023/02/12 10:32:05;;;;;;;;;;;;;;;17.11;30.98;100036.06;5112032;27;20367;-87
2023/02/12 10:34:33;;;;;;;;;;;;;;;19.64;26.19;100039.97;5104260;28;19996;-87
2023/02/12 10:37:04;;;;;;;;;;;;;;;19.02;28.37;100035.00;5112968;27;20209;-89
2023/02/12 10:39:39;;;;;;;;;;;;;;;18.05;29.00;100028.69;5111667;28;20260;-89
2023/02/12 10:42:15;;;;;;;;;;;;;;;17.96;30.10;100034.38;5117561;27;19923;-93
2023/02/12 10:44:41;;;;;;;;;;;;;;;20.77;25.47;100031.69;5120083;27;20378;-91
2023/02/12 10:47:21;;;;;;;;;;;;;;;22.44;23.69;100021.38;5116020;28;19946;-90
2023/02/12 10:50:00;;;;;;;;;;;;;;;23.39;22.38;100030.31;5105789;28;19926;-93
2023/02/12 10:52:35;;;;;;;;;;;;;;;19.74;26.97;100034.69;5114497;28;20379;-93
2023/02/12 10:55:02;;;;;;;;;;;;;;;19.15;26.92;100039.38;5111253;28;19930;-88
2023/02/12 10:57:31;;;;;;;;;;;;;;;19.92;26.35;100037.94;5102924;28;20015;-89
2023/02/12 11:00:14;;;;;;;;;;;;;;;18.33;28.89;100040.75;5115210;28;20018;-90
2023/02/12 11:02:57;;;;;;;;;;;;;;;19.37;28.19;100030.47;5112147;28;19920;-89
2023/02/12 11:05:25;;;;;;;;;;;;;;;19.69;27.05;100032.19;5112829;27;19934;-90
2023/02/12 11:07:51;;;;;;;;;;;;;;;18.06;28.71;100028.38;5107697;28;20302;-87
2023/02/12 11:10:24;;;;;;;;;;;;;;;20.64;25.65;100022.59;5110947;28;19922;-88
2023/02/12 11:12:50;;;;;;;;;;;;;;;19.47;29.33;100024.41;5104777;28;20325;-89
2023/02/12 11:15:21;;;;;;;;;;;;;;;17.19;32.11;100027.66;5110884;28;20025;-89
2023/02/12 11:17:56;;;;;;;;;;;;;;;18.31;28.59;100021.66;5124169;27;19938;-88
2023/02/12 11:20:27;;;;;;;;;;;;;;;20.44;25.47;100013.38;5114765;28;19919;-89
2023/02/12 11:23:00;;;;;;;;;;;;;;;17.19;29.42;100024.91;5111146;28;19920;-88
2023/02/12 11:25:28;;;;;;;;;;;;;;;16.66;31.10;100035.13;5097759;28;20323;-87
2023/02/12 11:28:05;;;;;;;;;;;;;;;18.10;28.12;100031.25;5112685;28;20250;-87
2023/02/12 11:30:31;;;;;;;;;;;;;;;19.12;26.99;100032.53;5111363;28;19984;-87
2023/02/12 11:33:20;;;;;;;;;;;;;;;21.18;24.85;100015.06;5106745;27;19974;-86
2023/02/12 11:36:10;;;;;;;;;;;;;;;22.65;22.54;100013.31;5113934;28;19919;-86
2023/02/12 11:38:38;;;;;;;;;;;;;;;22.48;22.77;100025.03;5096670;27;19927;-85
2023/02/12 11:41:07;;;;;;;;;;;;;;;20.72;24.81;100029.16;5111761;28;19943;-87
2023/02/12 11:43:36;;;;;;;;;;;;;;;22.29;22.85;100027.09;5105124;28;19919;-89
2023/02/12 11:46:02;;;;;;;;;;;;;;;20.52;24.80;100031.91;5109849;28;19954;-88
2023/02/12 11:48:30;;;;;;;;;;;;;;;21.52;24.49;100020.91;5114375;28;19920;-86
2023/02/12 11:50:59;;;;;;;;;;;;;;;22.26;23.10;100022.25;5113576;28;19972;-88
2023/02/12 11:53:28;;;;;;;;;;;;;;;22.38;22.96;100025.66;5104964;27;19916;-87
2023/02/12 11:55:59;;;;;;;;;;;;;;;21.50;24.55;100024.06;5115931;27;19923;-86
2023/02/12 11:58:26;;;;;;;;;;;;;;;21.12;24.72;100019.31;5108838;28;19964;-86
2023/02/12 12:00:56;;;;;;;;;;;;;;;20.83;25.24;100017.06;5100616;27;19920;-86
2023/02/12 12:03:33;;;;;;;;;;;;;;;21.64;23.17;100007.56;5113719;28;19923;-86
2023/02/12 12:06:04;;;;;;;;;;;;;;;22.78;22.91;100011.09;5102902;28;19923;-88
2023/02/12 12:08:42;;;;;;;;;;;;;;;23.41;22.16;100008.31;5111928;27;20394;-86
2023/02/12 12:11:14;;;;;;;;;;;;;;;24.14;21.77;100012.28;5108771;28;19959;-88
2023/02/12 12:13:43;;;;;;;;;;;;;;;24.14;21.84;100009.47;5108188;28;19916;-88
2023/02/12 12:22:08;;;;;;;;;;;;;;;24.78;21.46;100000.34;5112158;28;19922;-87
2023/02/12 12:24:41;;;;;;;;;;;;;;;24.30;21.32;100007.19;5098725;28;19928;-89
2023/02/12 12:27:23;;;;;;;;;;;;;;;22.95;22.02;99999.31;5111798;28;20356;-85
2023/02/12 12:29:57;;;;;;;;;;;;;;;23.79;21.83;100002.31;5102257;28;20360;-85
2023/02/12 12:32:25;;;;;;;;;;;;;;;23.44;23.00;99993.53;5107254;28;20363;-89
2023/02/12 12:34:51;;;;;;;;;;;;;;;23.08;23.47;99994.28;5104364;28;19972;-88
2023/02/12 12:37:36;;;;;;;;;;;;;;;23.80;22.08;99991.91;5096006;28;19926;-87
2023/02/12 12:40:20;;;;;;;;;;;;;;;24.72;20.86;99988.63;5113222;27;20283;-88
2023/02/12 12:43:05;;;;;;;;;;;;;;;24.27;21.66;100000.34;5112313;28;19920;-89
2023/02/12 12:45:57;;;;;;;;;;;;;;;24.65;20.52;99985.78;5112388;28;20014;-90
2023/02/12 12:48:23;;;;;;;;;;;;;;;23.91;21.08;99993.63;5103891;28;19920;-89
2023/02/12 12:51:15;;;;;;;;;;;;;;;24.39;20.42;99993.63;5106128;28;19927;-89
2023/02/12 12:53:41;;;;;;;;;;;;;;;23.98;20.96;99992.88;5075316;28;20342;-90
2023/02/12 12:56:19;;;;;;;;;;;;;;;24.14;21.02;99985.03;5101435;28;19919;-89
2023/02/12 12:59:04;;;;;;;;;;;;;;;23.78;22.00;99985.88;5108792;28;19919;-88
2023/02/12 13:01:32;;;;;;;;;;;;;;;21.74;25.55;100000.56;5114019;28;19927;-92
2023/02/12 13:04:08;;;;;;;;;;;;;;;19.36;25.94;100014.13;5114176;28;20412;-88
2023/02/12 13:06:40;;;;;;;;;;;;;;;18.82;28.16;100005.38;5108823;28;19920;-89